createdAt,value
2024-01-24T00:00:23.170Z,1010.17
2024-01-24T00:01:00.254Z,1010.1
2024-01-24T00:01:37.350Z,1010.09
2024-01-24T00:02:14.291Z,1010.02
2024-01-24T00:02:51.454Z,1010.06
2024-01-24T00:03:28.500Z,1010.05
2024-01-24T00:04:05.458Z,1010.05
2024-01-24T00:04:42.573Z,1009.96
2024-01-24T00:05:19.720Z,1010.03
2024-01-24T00:05:56.698Z,1009.93
2024-01-24T00:06:34.221Z,1009.89
2024-01-24T00:07:10.746Z,1009.85
2024-01-24T00:07:47.861Z,1009.85
2024-01-24T00:08:24.933Z,1009.82
2024-01-24T00:09:01.970Z,1009.72
2024-01-24T00:09:39.056Z,1009.74
2024-01-24T00:10:16.113Z,1009.73
2024-01-24T00:10:53.096Z,1009.7
2024-01-24T00:11:30.207Z,1009.64
2024-01-24T00:12:07.378Z,1009.63
2024-01-24T00:12:44.352Z,1009.56
2024-01-24T00:13:58.382Z,1009.55
2024-01-24T00:14:35.520Z,1009.45
2024-01-24T00:15:12.583Z,1009.47
2024-01-24T00:15:49.714Z,1009.45
2024-01-24T00:16:28.992Z,1009.39
2024-01-24T00:17:03.676Z,1009.4
2024-01-24T00:17:40.811Z,1009.32
2024-01-24T00:18:18.027Z,1009.31
2024-01-24T00:18:54.965Z,1009.27
2024-01-24T00:19:32.010Z,1009.26
2024-01-24T00:20:09.002Z,1009.27
2024-01-24T00:20:46.101Z,1009.24
2024-01-24T00:21:23.270Z,1009.25
2024-01-24T00:22:00.260Z,1009.18
2024-01-24T00:22:37.303Z,1009.13
2024-01-24T00:23:14.377Z,1009.06
2024-01-24T00:23:51.400Z,1008.98
2024-01-24T00:24:28.503Z,1008.98
2024-01-24T00:25:05.577Z,1008.97
2024-01-24T00:25:42.596Z,1008.95
2024-01-24T00:26:19.591Z,1009
2024-01-24T00:26:56.701Z,1008.98
2024-01-24T00:27:33.791Z,1008.96
2024-01-24T00:28:10.864Z,1008.93
2024-01-24T00:28:47.931Z,1008.9
2024-01-24T00:29:24.961Z,1008.84
2024-01-24T00:30:02.030Z,1008.88
2024-01-24T00:30:39.121Z,1008.95
2024-01-24T00:31:16.174Z,1008.9
2024-01-24T00:31:53.203Z,1009.03
2024-01-24T00:32:30.230Z,1008.96
2024-01-24T00:33:07.335Z,1008.96
2024-01-24T00:33:44.456Z,1008.87
2024-01-24T00:34:21.475Z,1008.9
2024-01-24T00:34:58.546Z,1008.75
2024-01-24T00:35:35.595Z,1008.79
2024-01-24T00:36:12.713Z,1008.67
2024-01-24T00:36:49.765Z,1008.71
2024-01-24T00:37:26.741Z,1008.67
2024-01-24T00:38:03.818Z,1008.7
2024-01-24T00:38:40.779Z,1008.64
2024-01-24T00:39:18.017Z,1008.62
2024-01-24T00:39:55.026Z,1008.6
2024-01-24T00:40:32.072Z,1008.58
2024-01-24T00:41:46.195Z,1008.48
2024-01-24T00:42:23.299Z,1008.37
2024-01-24T00:43:00.358Z,1008.37
2024-01-24T00:43:37.391Z,1008.34
2024-01-24T00:44:14.444Z,1008.35
2024-01-24T00:44:51.397Z,1008.4
2024-01-24T00:45:28.600Z,1008.3
2024-01-24T00:46:05.591Z,1008.32
2024-01-24T00:46:42.689Z,1008.3
2024-01-24T00:47:19.787Z,1008.26
2024-01-24T00:47:56.831Z,1008.23
2024-01-24T00:48:33.930Z,1008.29
2024-01-24T00:49:11.097Z,1008.17
2024-01-24T00:49:47.987Z,1008.1
2024-01-24T00:50:25.037Z,1008
2024-01-24T00:51:02.092Z,1007.96
2024-01-24T00:51:39.185Z,1007.97
2024-01-24T00:52:53.290Z,1007.95
2024-01-24T00:53:30.332Z,1007.9
2024-01-24T00:54:07.390Z,1007.9
2024-01-24T00:54:44.517Z,1007.87
2024-01-24T00:55:21.528Z,1007.88
2024-01-24T00:55:58.567Z,1007.89
2024-01-24T00:56:35.627Z,1007.88
2024-01-24T00:57:12.732Z,1007.85
2024-01-24T00:57:49.785Z,1007.76
2024-01-24T00:58:26.824Z,1007.75
2024-01-24T00:59:03.915Z,1007.67
2024-01-24T00:59:40.985Z,1007.71
2024-01-24T01:00:55.219Z,1007.57
2024-01-24T01:01:32.196Z,1007.45
2024-01-24T01:02:09.208Z,1007.48
2024-01-24T01:02:46.300Z,1007.44
2024-01-24T01:03:23.302Z,1007.29
2024-01-24T01:04:00.505Z,1007.29
2024-01-24T01:04:37.432Z,1007.24
2024-01-24T01:05:14.601Z,1007.15
2024-01-24T01:05:51.603Z,1007.12
2024-01-24T01:07:05.732Z,1007.18
2024-01-24T01:07:42.782Z,1007.15
2024-01-24T01:08:56.946Z,1007.25
2024-01-24T01:10:02.803Z,1007.16
2024-01-24T01:11:16.892Z,1007.21
2024-01-24T01:12:31.093Z,1007.09
2024-01-24T01:13:45.158Z,1007.11
2024-01-24T01:14:59.202Z,1007.06
2024-01-24T01:16:13.429Z,1007.07
2024-01-24T01:17:27.540Z,1006.99
2024-01-24T01:18:41.692Z,1006.88
2024-01-24T01:19:55.782Z,1006.98
2024-01-24T01:21:01.696Z,1006.97
2024-01-24T01:21:38.829Z,1006.97
2024-01-24T01:22:15.861Z,1006.94
2024-01-24T01:22:52.891Z,1006.91
2024-01-24T01:23:29.939Z,1006.78
2024-01-24T01:24:07.009Z,1006.81
2024-01-24T01:24:44.065Z,1006.71
2024-01-24T01:25:21.044Z,1006.73
2024-01-24T01:25:58.154Z,1006.76
2024-01-24T01:27:49.468Z,1006.69
2024-01-24T01:28:55.291Z,1006.7
2024-01-24T01:30:09.471Z,1006.64
2024-01-24T01:31:23.550Z,1006.67
2024-01-24T01:32:37.733Z,1006.6
2024-01-24T01:33:51.763Z,1006.47
2024-01-24T01:35:05.901Z,1006.48
2024-01-24T01:36:23.457Z,1006.41
2024-01-24T01:37:34.137Z,1006.4
2024-01-24T01:38:48.251Z,1006.23
2024-01-24T01:39:54.247Z,1006.23
2024-01-24T01:40:31.229Z,1006.25
2024-01-24T01:41:08.292Z,1006.17
2024-01-24T01:41:45.257Z,1006.13
2024-01-24T01:42:22.344Z,1006.19
2024-01-24T01:42:59.505Z,1006.21
2024-01-24T01:43:36.540Z,1006.3
2024-01-24T01:44:13.593Z,1006.21
2024-01-24T01:44:50.601Z,1006.23
2024-01-24T01:45:27.789Z,1006.21
2024-01-24T01:46:04.790Z,1006.18
2024-01-24T01:46:41.861Z,1006.09
2024-01-24T01:47:18.924Z,1006.1
2024-01-24T01:47:56.031Z,1006.12
2024-01-24T01:48:33.053Z,1006.16
2024-01-24T01:49:10.189Z,1006.23
2024-01-24T01:49:47.387Z,1006.13
2024-01-24T01:50:24.212Z,1006.17
2024-01-24T01:51:01.243Z,1006.13
2024-01-24T01:51:38.478Z,1006.08
2024-01-24T01:52:15.396Z,1006.06
2024-01-24T01:52:52.449Z,1006.08
2024-01-24T01:53:29.519Z,1006.12
2024-01-24T01:54:06.569Z,1006.09
2024-01-24T01:54:43.684Z,1006.07
2024-01-24T01:55:20.690Z,1006.08
2024-01-24T01:55:57.733Z,1006.08
2024-01-24T01:56:34.820Z,1006.02
2024-01-24T01:57:11.908Z,1006.02
2024-01-24T01:57:48.957Z,1006.09
2024-01-24T01:58:25.936Z,1006.08
2024-01-24T01:59:03.083Z,1006.02
2024-01-24T01:59:40.101Z,1005.91
2024-01-24T02:00:17.236Z,1005.94
2024-01-24T02:00:54.291Z,1005.93
2024-01-24T02:01:31.334Z,1005.8
2024-01-24T02:02:08.378Z,1005.89
2024-01-24T02:02:45.505Z,1005.87
2024-01-24T02:03:22.538Z,1005.86
2024-01-24T02:03:59.582Z,1005.84
2024-01-24T02:04:36.592Z,1005.89
2024-01-24T02:05:13.741Z,1005.73
2024-01-24T02:05:50.728Z,1005.58
2024-01-24T02:06:27.948Z,1005.57
2024-01-24T02:07:04.858Z,1005.57
2024-01-24T02:07:42.062Z,1005.57
2024-01-24T02:08:18.990Z,1005.51
2024-01-24T02:08:56.064Z,1005.61
2024-01-24T02:09:33.112Z,1005.48
2024-01-24T02:10:10.152Z,1005.58
2024-01-24T02:10:47.213Z,1005.57
2024-01-24T02:11:24.300Z,1005.58
2024-01-24T02:12:01.352Z,1005.61
2024-01-24T02:12:38.426Z,1005.52
2024-01-24T02:13:48.399Z,1005.58
2024-01-24T02:14:25.500Z,1005.6
2024-01-24T02:15:02.540Z,1005.56
2024-01-24T02:15:39.646Z,1005.59
2024-01-24T02:16:19.253Z,1005.54
2024-01-24T02:16:53.748Z,1005.58
2024-01-24T02:17:30.811Z,1005.72
2024-01-24T02:18:44.959Z,1005.75
2024-01-24T02:19:21.908Z,1005.7
2024-01-24T02:19:59.156Z,1005.71
2024-01-24T02:20:36.090Z,1005.68
2024-01-24T02:21:13.200Z,1005.66
2024-01-24T02:21:50.227Z,1005.63
2024-01-24T02:22:27.203Z,1005.62
2024-01-24T02:23:04.350Z,1005.63
2024-01-24T02:23:41.398Z,1005.55
2024-01-24T02:24:18.519Z,1005.63
2024-01-24T02:24:55.661Z,1005.63
2024-01-24T02:25:32.591Z,1005.61
2024-01-24T02:26:09.642Z,1005.55
2024-01-24T02:26:46.749Z,1005.56
2024-01-24T02:27:23.784Z,1005.43
2024-01-24T02:28:00.854Z,1005.46
2024-01-24T02:29:14.958Z,1005.52
2024-01-24T02:29:51.993Z,1005.5
2024-01-24T02:30:29.090Z,1005.5
2024-01-24T02:31:06.150Z,1005.46
2024-01-24T02:31:43.195Z,1005.36
2024-01-24T02:32:20.378Z,1005.27
2024-01-24T02:32:57.400Z,1005.31
2024-01-24T02:33:34.694Z,1005.27
2024-01-24T02:34:11.503Z,1005.29
2024-01-24T02:34:48.517Z,1005.27
2024-01-24T02:35:25.546Z,1005.25
2024-01-24T02:36:02.628Z,1005.25
2024-01-24T02:36:39.705Z,1005.24
2024-01-24T02:37:16.753Z,1005.18
2024-01-24T02:37:53.773Z,1005.17
2024-01-24T02:38:30.860Z,1005.18
2024-01-24T02:39:45.014Z,1005.24
2024-01-24T02:40:22.081Z,1005.22
2024-01-24T02:40:59.123Z,1005.08
2024-01-24T02:41:36.184Z,1005.07
2024-01-24T02:42:13.251Z,1005.14
2024-01-24T02:42:50.337Z,1005.06
2024-01-24T02:43:27.359Z,1005.14
2024-01-24T02:44:04.386Z,1005.07
2024-01-24T02:44:41.461Z,1005.11
2024-01-24T02:45:18.555Z,1005.07
2024-01-24T02:45:55.643Z,1005.09
2024-01-24T02:46:32.666Z,1005.04
2024-01-24T02:47:09.700Z,1005.02
2024-01-24T02:47:46.865Z,1005.09
2024-01-24T02:48:23.977Z,1004.98
2024-01-24T02:49:00.994Z,1004.99
2024-01-24T02:49:38.112Z,1004.95
2024-01-24T02:50:15.248Z,1005.05
2024-01-24T02:50:52.061Z,1005.04
2024-01-24T02:51:29.162Z,1004.93
2024-01-24T02:52:08.185Z,1005
2024-01-24T02:52:43.266Z,1004.88
2024-01-24T02:53:20.330Z,1004.95
2024-01-24T02:53:57.422Z,1004.8
2024-01-24T02:54:34.470Z,1004.78
2024-01-24T02:55:11.501Z,1004.78
2024-01-24T02:55:48.543Z,1004.69
2024-01-24T02:56:25.543Z,1004.61
2024-01-24T02:57:02.680Z,1004.58
2024-01-24T02:57:39.765Z,1004.5
2024-01-24T02:58:16.817Z,1004.62
2024-01-24T02:58:53.861Z,1004.67
2024-01-24T02:59:30.938Z,1004.68
2024-01-24T03:00:07.986Z,1004.72
2024-01-24T03:00:45.091Z,1004.72
2024-01-24T03:01:22.175Z,1004.71
2024-01-24T03:01:59.166Z,1004.66
2024-01-24T03:03:13.262Z,1004.53
2024-01-24T03:03:50.468Z,1004.51
2024-01-24T03:04:27.464Z,1004.6
2024-01-24T03:05:04.479Z,1004.52
2024-01-24T03:05:41.543Z,1004.46
2024-01-24T03:06:18.672Z,1004.5
2024-01-24T03:06:55.796Z,1004.44
2024-01-24T03:07:32.800Z,1004.46
2024-01-24T03:08:09.787Z,1004.54
2024-01-24T03:08:46.825Z,1004.52
2024-01-24T03:09:23.912Z,1004.51
2024-01-24T03:10:00.961Z,1004.45
2024-01-24T03:10:37.990Z,1004.5
2024-01-24T03:11:15.117Z,1004.5
2024-01-24T03:11:52.136Z,1004.48
2024-01-24T03:12:29.131Z,1004.42
2024-01-24T03:13:06.308Z,1004.5
2024-01-24T03:13:43.341Z,1004.46
2024-01-24T03:14:20.389Z,1004.34
2024-01-24T03:14:57.497Z,1004.41
2024-01-24T03:15:34.597Z,1004.39
2024-01-24T03:16:11.571Z,1004.4
2024-01-24T03:16:48.618Z,1004.47
2024-01-24T03:17:25.695Z,1004.49
2024-01-24T03:18:02.877Z,1004.52
2024-01-24T03:18:40.065Z,1004.34
2024-01-24T03:19:16.948Z,1004.41
2024-01-24T03:19:54.039Z,1004.41
2024-01-24T03:20:30.988Z,1004.45
2024-01-24T03:21:08.080Z,1004.47
2024-01-24T03:21:45.076Z,1004.36
2024-01-24T03:22:22.153Z,1004.44
2024-01-24T03:22:59.895Z,1004.43
2024-01-24T03:23:36.313Z,1004.39
2024-01-24T03:24:13.382Z,1004.45
2024-01-24T03:24:50.463Z,1004.42
2024-01-24T03:25:27.422Z,1004.32
2024-01-24T03:26:04.528Z,1004.44
2024-01-24T03:26:42.044Z,1004.37
2024-01-24T03:27:18.693Z,1004.44
2024-01-24T03:27:55.800Z,1004.33
2024-01-24T03:28:32.776Z,1004.38
2024-01-24T03:29:09.824Z,1004.4
2024-01-24T03:29:46.977Z,1004.33
2024-01-24T03:30:23.977Z,1004.38
2024-01-24T03:31:01.039Z,1004.38
2024-01-24T03:31:38.117Z,1004.4
2024-01-24T03:32:15.151Z,1004.38
2024-01-24T03:32:52.322Z,1004.32
2024-01-24T03:33:29.305Z,1004.37
2024-01-24T03:34:06.422Z,1004.38
2024-01-24T03:34:43.308Z,1004.41
2024-01-24T03:35:20.463Z,1004.3
2024-01-24T03:35:57.549Z,1004.32
2024-01-24T03:36:35.222Z,1004.29
2024-01-24T03:37:11.619Z,1004.28
2024-01-24T03:37:48.691Z,1004.3
2024-01-24T03:38:25.756Z,1004.31
2024-01-24T03:39:02.808Z,1004.3
2024-01-24T03:39:39.920Z,1004.36
2024-01-24T03:40:16.953Z,1004.29
2024-01-24T03:40:53.982Z,1004.26
2024-01-24T03:41:31.075Z,1004.22
2024-01-24T03:42:08.118Z,1004.16
2024-01-24T03:42:45.196Z,1004.18
2024-01-24T03:43:22.293Z,1004.21
2024-01-24T03:43:59.342Z,1004.21
2024-01-24T03:44:36.413Z,1004.17
2024-01-24T03:45:13.446Z,1004.26
2024-01-24T03:45:50.530Z,1004.32
2024-01-24T03:46:27.522Z,1004.22
2024-01-24T03:47:04.596Z,1004.25
2024-01-24T03:47:41.739Z,1004.22
2024-01-24T03:48:18.773Z,1004.24
2024-01-24T03:48:55.893Z,1004.2
2024-01-24T03:49:32.957Z,1004.25
2024-01-24T03:50:09.912Z,1004.29
2024-01-24T03:50:46.987Z,1004.27
2024-01-24T03:51:24.067Z,1004.18
2024-01-24T03:52:01.066Z,1004.18
2024-01-24T03:52:38.177Z,1004.2
2024-01-24T03:53:15.225Z,1004.16
2024-01-24T03:53:52.260Z,1004.18
2024-01-24T03:54:29.375Z,1004.25
2024-01-24T03:55:06.416Z,1004.17
2024-01-24T03:55:43.697Z,1004.12
2024-01-24T03:56:20.427Z,1004.17
2024-01-24T03:56:57.584Z,1004.16
2024-01-24T03:57:34.721Z,1004.15
2024-01-24T03:58:11.693Z,1004.15
2024-01-24T03:58:48.778Z,1004.2
2024-01-24T03:59:25.830Z,1004.11
2024-01-24T04:00:40.041Z,1004.12
2024-01-24T04:01:17.160Z,1004.09
2024-01-24T04:01:54.051Z,1004.03
2024-01-24T04:02:31.110Z,1003.97
2024-01-24T04:03:08.167Z,1003.92
2024-01-24T04:03:45.311Z,1003.85
2024-01-24T04:04:22.492Z,1003.82
2024-01-24T04:04:59.396Z,1003.81
2024-01-24T04:05:36.419Z,1003.79
2024-01-24T04:06:13.553Z,1003.79
2024-01-24T04:06:50.730Z,1003.76
2024-01-24T04:07:27.693Z,1003.76
2024-01-24T04:08:04.659Z,1003.75
2024-01-24T04:08:41.636Z,1003.74
2024-01-24T04:09:18.838Z,1003.72
2024-01-24T04:09:55.864Z,1003.75
2024-01-24T04:10:32.938Z,1003.74
2024-01-24T04:11:09.972Z,1003.81
2024-01-24T04:12:24.149Z,1003.74
2024-01-24T04:13:01.264Z,1003.75
2024-01-24T04:13:38.216Z,1003.73
2024-01-24T04:14:15.297Z,1003.73
2024-01-24T04:14:52.264Z,1003.72
2024-01-24T04:15:29.557Z,1003.72
2024-01-24T04:16:06.559Z,1003.75
2024-01-24T04:16:43.520Z,1003.72
2024-01-24T04:17:53.666Z,1003.66
2024-01-24T04:18:30.719Z,1003.58
2024-01-24T04:19:07.814Z,1003.63
2024-01-24T04:19:45.064Z,1003.59
2024-01-24T04:20:21.816Z,1003.6
2024-01-24T04:20:58.828Z,1003.51
2024-01-24T04:21:35.996Z,1003.56
2024-01-24T04:22:12.998Z,1003.51
2024-01-24T04:22:50.052Z,1003.51
2024-01-24T04:23:27.045Z,1003.44
2024-01-24T04:24:04.085Z,1003.42
2024-01-24T04:24:41.257Z,1003.27
2024-01-24T04:25:18.280Z,1003.27
2024-01-24T04:25:55.375Z,1003.24
2024-01-24T04:26:32.437Z,1003.3
2024-01-24T04:27:09.479Z,1003.25
2024-01-24T04:27:46.606Z,1003.23
2024-01-24T04:28:23.583Z,1003.3
2024-01-24T04:29:00.658Z,1003.29
2024-01-24T04:29:37.643Z,1003.23
2024-01-24T04:30:14.780Z,1003.31
2024-01-24T04:30:51.935Z,1003.29
2024-01-24T04:32:05.946Z,1003.3
2024-01-24T04:32:43.007Z,1003.3
2024-01-24T04:33:20.180Z,1003.3
2024-01-24T04:33:57.285Z,1003.27
2024-01-24T04:34:34.237Z,1003.22
2024-01-24T04:35:11.273Z,1003.23
2024-01-24T04:35:48.307Z,1003.28
2024-01-24T04:36:25.389Z,1003.28
2024-01-24T04:37:02.502Z,1003.26
2024-01-24T04:37:39.555Z,1003.23
2024-01-24T04:38:16.602Z,1003.23
2024-01-24T04:38:53.635Z,1003.28
2024-01-24T04:39:30.780Z,1003.21
2024-01-24T04:40:07.772Z,1003.19
2024-01-24T04:40:44.806Z,1003.11
2024-01-24T04:41:21.873Z,1003.16
2024-01-24T04:42:05.259Z,1003.18
2024-01-24T04:42:36.034Z,1003.17
2024-01-24T04:43:13.049Z,1003.2
2024-01-24T04:43:50.090Z,1003.14
2024-01-24T04:44:27.188Z,1003.12
2024-01-24T04:45:04.237Z,1003.12
2024-01-24T04:45:41.377Z,1003.1
2024-01-24T04:46:18.366Z,1003.08
2024-01-24T04:46:55.428Z,1003.06
2024-01-24T04:47:32.506Z,1003.11
2024-01-24T04:48:09.586Z,1003.12
2024-01-24T04:48:46.674Z,1002.95
2024-01-24T04:49:31.224Z,1002.97
2024-01-24T04:50:00.964Z,1003.05
2024-01-24T04:51:14.975Z,1002.97
2024-01-24T04:51:51.966Z,1002.95
2024-01-24T04:52:28.867Z,1003.05
2024-01-24T04:53:43.114Z,1002.89
2024-01-24T04:54:57.291Z,1002.91
2024-01-24T04:56:03.149Z,1002.8
2024-01-24T04:57:17.196Z,1002.89
2024-01-24T04:58:31.396Z,1002.91
2024-01-24T04:59:52.575Z,1002.84
2024-01-24T05:00:59.706Z,1002.89
2024-01-24T05:02:13.804Z,1002.98
2024-01-24T05:03:27.799Z,1003
2024-01-24T05:04:42.049Z,1002.93
2024-01-24T05:06:04.006Z,1002.9
2024-01-24T05:07:02.077Z,1002.98
2024-01-24T05:07:39.113Z,1002.98
2024-01-24T05:08:16.197Z,1002.95
2024-01-24T05:08:53.223Z,1002.89
2024-01-24T05:09:30.347Z,1003.04
2024-01-24T05:10:07.391Z,1002.96
2024-01-24T05:10:44.394Z,1002.92
2024-01-24T05:11:21.465Z,1002.93
2024-01-24T05:11:58.608Z,1002.99
2024-01-24T05:12:35.624Z,1003
2024-01-24T05:13:12.695Z,1002.98
2024-01-24T05:13:49.678Z,1002.91
2024-01-24T05:14:26.773Z,1002.93
2024-01-24T05:15:03.897Z,1002.99
2024-01-24T05:15:40.854Z,1002.94
2024-01-24T05:16:17.953Z,1002.97
2024-01-24T05:16:55.031Z,1002.93
2024-01-24T05:17:31.980Z,1002.98
2024-01-24T05:18:09.172Z,1002.79
2024-01-24T05:18:46.302Z,1002.94
2024-01-24T05:19:23.322Z,1002.79
2024-01-24T05:20:00.341Z,1002.76
2024-01-24T05:20:37.375Z,1002.85
2024-01-24T05:21:14.344Z,1002.84
2024-01-24T05:21:51.640Z,1002.8
2024-01-24T05:22:28.556Z,1002.83
2024-01-24T05:23:05.654Z,1002.83
2024-01-24T05:23:42.657Z,1002.74
2024-01-24T05:24:19.771Z,1002.71
2024-01-24T05:24:56.836Z,1002.67
2024-01-24T05:25:33.842Z,1002.81
2024-01-24T05:26:10.932Z,1002.84
2024-01-24T05:26:47.979Z,1002.86
2024-01-24T05:27:25.154Z,1002.91
2024-01-24T05:28:02.160Z,1002.87
2024-01-24T05:28:39.193Z,1002.76
2024-01-24T05:29:16.230Z,1002.82
2024-01-24T05:29:53.199Z,1002.8
2024-01-24T05:30:35.726Z,1002.68
2024-01-24T05:31:07.334Z,1002.67
2024-01-24T05:31:44.459Z,1002.73
2024-01-24T05:32:21.552Z,1002.6
2024-01-24T05:32:58.729Z,1002.57
2024-01-24T05:33:35.758Z,1002.62
2024-01-24T05:34:12.861Z,1002.68
2024-01-24T05:34:50.022Z,1002.68
2024-01-24T05:35:26.837Z,1002.65
2024-01-24T05:36:03.932Z,1002.57
2024-01-24T05:36:41.043Z,1002.65
2024-01-24T05:37:18.061Z,1002.59
2024-01-24T05:37:55.086Z,1002.59
2024-01-24T05:38:32.152Z,1002.59
2024-01-24T05:39:09.187Z,1002.61
2024-01-24T05:39:46.317Z,1002.54
2024-01-24T05:40:23.346Z,1002.53
2024-01-24T05:41:00.375Z,1002.54
2024-01-24T05:41:37.445Z,1002.51
2024-01-24T05:42:14.522Z,1002.47
2024-01-24T05:42:53.287Z,1002.5
2024-01-24T05:43:28.648Z,1002.39
2024-01-24T05:44:05.742Z,1002.43
2024-01-24T05:44:42.761Z,1002.36
2024-01-24T05:45:19.839Z,1002.34
2024-01-24T05:45:57.015Z,1002.41
2024-01-24T05:47:10.985Z,1002.35
2024-01-24T05:47:48.129Z,1002.35
2024-01-24T05:48:25.265Z,1002.36
2024-01-24T05:49:02.801Z,1002.3
2024-01-24T05:50:16.296Z,1002.38
2024-01-24T05:50:53.400Z,1002.39
2024-01-24T05:51:30.463Z,1002.41
2024-01-24T05:52:07.612Z,1002.39
2024-01-24T05:52:44.545Z,1002.43
2024-01-24T05:53:21.642Z,1002.36
2024-01-24T05:53:58.730Z,1002.36
2024-01-24T05:54:35.835Z,1002.34
2024-01-24T05:55:12.711Z,1002.27
2024-01-24T05:55:49.837Z,1002.31
2024-01-24T05:56:26.907Z,1002.3
2024-01-24T05:57:03.996Z,1002.32
2024-01-24T05:57:41.379Z,1002.31
2024-01-24T05:58:18.069Z,1002.28
2024-01-24T05:58:55.145Z,1002.28
2024-01-24T05:59:32.218Z,1002.26
2024-01-24T06:00:09.331Z,1002.24
2024-01-24T06:00:46.451Z,1002.18
2024-01-24T06:01:24.379Z,1002.13
2024-01-24T06:02:00.398Z,1002.09
2024-01-24T06:02:37.494Z,1002.11
2024-01-24T06:03:14.586Z,1002.11
2024-01-24T06:03:51.756Z,1002.17
2024-01-24T06:04:28.908Z,1002.08
2024-01-24T06:05:05.916Z,1002.2
2024-01-24T06:05:42.967Z,1002.27
2024-01-24T06:06:20.306Z,1002.19
2024-01-24T06:06:57.018Z,1002.16
2024-01-24T06:07:34.046Z,1002.24
2024-01-24T06:08:11.068Z,1002.23
2024-01-24T06:08:48.120Z,1002.18
2024-01-24T06:09:25.241Z,1002.14
2024-01-24T06:10:02.342Z,1002.14
2024-01-24T06:10:39.332Z,1002.13
2024-01-24T06:11:16.274Z,1002.2
2024-01-24T06:11:53.447Z,1002.2
2024-01-24T06:12:30.507Z,1002.33
2024-01-24T06:13:07.557Z,1002.18
2024-01-24T06:13:44.598Z,1002.18
2024-01-24T06:14:21.671Z,1002.14
2024-01-24T06:14:58.763Z,1002.26
2024-01-24T06:15:35.804Z,1002.25
2024-01-24T06:16:49.911Z,1002.24
2024-01-24T06:17:26.976Z,1002.37
2024-01-24T06:18:04.044Z,1002.25
2024-01-24T06:18:41.165Z,1002.23
2024-01-24T06:19:18.223Z,1002.22
2024-01-24T06:19:55.246Z,1002.36
2024-01-24T06:20:32.284Z,1002.34
2024-01-24T06:21:09.324Z,1002.23
2024-01-24T06:21:46.342Z,1002.31
2024-01-24T06:22:23.449Z,1002.26
2024-01-24T06:23:00.497Z,1002.39
2024-01-24T06:23:37.601Z,1002.35
2024-01-24T06:24:14.664Z,1002.24
2024-01-24T06:24:51.685Z,1002.19
2024-01-24T06:25:28.777Z,1002.32
2024-01-24T06:26:38.774Z,1002.3
2024-01-24T06:27:15.867Z,1002.37
2024-01-24T06:27:53.174Z,1002.32
2024-01-24T06:28:30.009Z,1002.22
2024-01-24T06:29:07.094Z,1002.31
2024-01-24T06:30:16.749Z,1002.27
2024-01-24T06:30:23.494Z,1002.32
2024-01-24T06:30:58.211Z,1002.34
2024-01-24T06:31:35.265Z,1002.3
2024-01-24T06:32:12.293Z,1002.39
2024-01-24T06:32:49.526Z,1002.32
2024-01-24T06:33:26.482Z,1002.26
2024-01-24T06:34:03.578Z,1002.24
2024-01-24T06:34:40.684Z,1002.24
2024-01-24T06:35:17.639Z,1002.26
2024-01-24T06:35:54.699Z,1002.17
2024-01-24T06:36:31.803Z,1002.2
2024-01-24T06:37:08.803Z,1002.13
2024-01-24T06:37:45.873Z,1002.29
2024-01-24T06:38:22.937Z,1002.31
2024-01-24T06:39:00.008Z,1002.47
2024-01-24T06:39:37.083Z,1002.41
2024-01-24T06:40:14.111Z,1002.34
2024-01-24T06:40:51.198Z,1002.35
2024-01-24T06:41:28.227Z,1002.31
2024-01-24T06:42:05.339Z,1002.35
2024-01-24T06:42:42.425Z,1002.35
2024-01-24T06:43:19.437Z,1002.37
2024-01-24T06:43:56.406Z,1002.33
2024-01-24T06:44:33.576Z,1002.37
2024-01-24T06:45:10.623Z,1002.32
2024-01-24T06:45:47.694Z,1002.39
2024-01-24T06:46:24.729Z,1002.39
2024-01-24T06:47:38.904Z,1002.37
2024-01-24T06:48:16.005Z,1002.32
2024-01-24T06:48:53.016Z,1002.49
2024-01-24T06:49:30.253Z,1002.54
2024-01-24T06:50:07.117Z,1002.5
2024-01-24T06:50:44.302Z,1002.53
2024-01-24T06:51:21.169Z,1002.48
2024-01-24T06:51:58.384Z,1002.56
2024-01-24T06:52:35.350Z,1002.55
2024-01-24T06:53:12.400Z,1002.56
2024-01-24T06:53:49.408Z,1002.61
2024-01-24T06:54:26.459Z,1002.55
2024-01-24T06:55:03.579Z,1002.54
2024-01-24T06:55:40.681Z,1002.65
2024-01-24T06:56:17.715Z,1002.52
2024-01-24T06:56:54.766Z,1002.46
2024-01-24T06:57:31.859Z,1002.64
2024-01-24T06:58:08.922Z,1002.56
2024-01-24T06:59:22.919Z,1002.65
2024-01-24T07:00:00.138Z,1002.48
2024-01-24T07:00:37.350Z,1002.82
2024-01-24T07:01:14.276Z,1002.79
2024-01-24T07:01:51.399Z,1002.74
2024-01-24T07:02:28.303Z,1002.71
2024-01-24T07:03:05.375Z,1002.84
2024-01-24T07:03:42.450Z,1002.82
2024-01-24T07:04:19.523Z,1002.86
2024-01-24T07:04:56.700Z,1002.84
2024-01-24T07:05:33.615Z,1002.97
2024-01-24T07:06:10.726Z,1003
2024-01-24T07:06:47.774Z,1003.2
2024-01-24T07:08:01.880Z,1003.12
2024-01-24T07:08:41.502Z,1003.07
2024-01-24T07:09:16.035Z,1003.17
2024-01-24T07:09:53.231Z,1003.24
2024-01-24T07:10:30.077Z,1003.32
2024-01-24T07:11:07.187Z,1003.37
2024-01-24T07:11:44.232Z,1003.46
2024-01-24T07:12:21.332Z,1003.43
2024-01-24T07:12:58.527Z,1003.41
2024-01-24T07:13:35.439Z,1003.41
2024-01-24T07:14:12.533Z,1003.35
2024-01-24T07:14:52.852Z,1003.32
2024-01-24T07:15:26.645Z,1003.42
2024-01-24T07:16:03.617Z,1003.43
2024-01-24T07:16:40.797Z,1003.42
2024-01-24T07:17:17.769Z,1003.46
2024-01-24T07:17:54.895Z,1003.47
2024-01-24T07:18:31.993Z,1003.49
2024-01-24T07:19:09.066Z,1003.48
2024-01-24T07:19:46.104Z,1003.48
2024-01-24T07:20:23.155Z,1003.46
2024-01-24T07:21:00.154Z,1003.4
2024-01-24T07:21:37.217Z,1003.34
2024-01-24T07:22:14.321Z,1003.41
2024-01-24T07:22:51.389Z,1003.42
2024-01-24T07:23:28.402Z,1003.45
2024-01-24T07:24:05.439Z,1003.38
2024-01-24T07:24:42.652Z,1003.34
2024-01-24T07:25:19.643Z,1003.45
2024-01-24T07:25:56.641Z,1003.31
2024-01-24T07:26:33.684Z,1003.34
2024-01-24T07:27:10.741Z,1003.32
2024-01-24T07:27:47.862Z,1003.28
2024-01-24T07:28:24.874Z,1003.32
2024-01-24T07:29:01.995Z,1003.28
2024-01-24T07:29:38.975Z,1003.23
2024-01-24T07:30:16.081Z,1003.23
2024-01-24T07:30:53.115Z,1003.2
2024-01-24T07:31:30.169Z,1003.19
2024-01-24T07:32:07.291Z,1003.17
2024-01-24T07:32:44.312Z,1003.13
2024-01-24T07:33:25.005Z,1003.16
2024-01-24T07:33:58.616Z,1003.17
2024-01-24T07:34:35.485Z,1003.19
2024-01-24T07:35:12.479Z,1003.18
2024-01-24T07:35:49.610Z,1003.15
2024-01-24T07:36:26.674Z,1003.19
2024-01-24T07:37:03.750Z,1003.16
2024-01-24T07:37:40.749Z,1003.16
2024-01-24T07:38:17.779Z,1003.16
2024-01-24T07:38:54.893Z,1003.16
2024-01-24T07:39:32.001Z,1003.19
2024-01-24T07:40:09.060Z,1003.18
2024-01-24T07:40:46.081Z,1003.16
2024-01-24T07:41:23.067Z,1003.17
2024-01-24T07:42:00.263Z,1003.18
2024-01-24T07:42:37.412Z,1003.16
2024-01-24T07:43:14.372Z,1003.15
2024-01-24T07:43:51.423Z,1003.17
2024-01-24T07:44:28.464Z,1003.18
2024-01-24T07:45:05.519Z,1003.21
2024-01-24T07:45:42.579Z,1003.19
2024-01-24T07:46:56.711Z,1003.22
2024-01-24T07:47:33.832Z,1003.21
2024-01-24T07:48:10.861Z,1003.19
2024-01-24T07:48:48.041Z,1003.21
2024-01-24T07:49:25.019Z,1003.21
2024-01-24T07:50:02.011Z,1003.24
2024-01-24T07:50:39.035Z,1003.25
2024-01-24T07:51:16.167Z,1003.23
2024-01-24T07:51:53.786Z,1003.24
2024-01-24T07:52:37.098Z,1003.22
2024-01-24T07:53:07.337Z,1003.17
2024-01-24T07:53:44.299Z,1003.14
2024-01-24T07:54:21.443Z,1003.11
2024-01-24T07:54:59.189Z,1003.09
2024-01-24T07:55:42.723Z,1003.11
2024-01-24T07:56:20.769Z,1003.15
2024-01-24T07:56:49.691Z,1003.14
2024-01-24T07:57:26.778Z,1003.14
2024-01-24T07:58:03.993Z,1003.16
2024-01-24T07:58:40.949Z,1003.16
2024-01-24T07:59:54.972Z,1003.19
2024-01-24T08:00:32.185Z,1003.3
2024-01-24T08:01:09.179Z,1003.35
2024-01-24T08:01:46.188Z,1003.35
2024-01-24T08:02:23.229Z,1003.42
2024-01-24T08:03:00.287Z,1003.37
2024-01-24T08:03:37.313Z,1003.39
2024-01-24T08:04:14.546Z,1003.4
2024-01-24T08:04:51.525Z,1003.41
2024-01-24T08:06:05.589Z,1003.39